createdAt,value
2018-11-28T00:02:21.285Z,97.40
2018-11-28T00:04:49.483Z,97.40
2018-11-28T00:07:17.673Z,97.50
2018-11-28T00:09:45.824Z,97.50
2018-11-28T00:12:14.558Z,97.10
2018-11-28T00:14:42.754Z,96.90
2018-11-28T00:17:10.895Z,97.00
2018-11-28T00:19:39.064Z,97.00
2018-11-28T00:22:07.328Z,97.10
2018-11-28T00:24:35.457Z,97.20
2018-11-28T00:27:03.584Z,97.40
2018-11-28T00:29:31.757Z,97.30
2018-11-28T00:32:00.892Z,97.20
2018-11-28T00:34:29.103Z,97.30
2018-11-28T00:36:57.941Z,97.40
2018-11-28T00:39:26.115Z,97.70
2018-11-28T00:41:54.281Z,97.70
2018-11-28T00:44:22.425Z,97.80
2018-11-28T00:46:52.241Z,97.80
2018-11-28T00:49:20.453Z,97.90
2018-11-28T00:51:48.761Z,98.00
2018-11-28T00:54:16.880Z,98.20
2018-11-28T00:56:45.040Z,98.20
2018-11-28T00:59:13.209Z,98.30
2018-11-28T01:01:41.431Z,98.50
2018-11-28T01:04:09.573Z,98.30
2018-11-28T01:06:37.715Z,98.40
2018-11-28T01:09:06.685Z,98.30
2018-11-28T01:11:35.121Z,98.40
2018-11-28T01:14:03.271Z,98.60
2018-11-28T01:16:31.459Z,98.80
2018-11-28T01:18:59.732Z,98.90
2018-11-28T01:21:27.911Z,98.90
2018-11-28T01:23:56.148Z,99.10
2018-11-28T01:26:24.303Z,99.20
2018-11-28T01:28:52.535Z,99.40
2018-11-28T01:31:20.692Z,99.50
2018-11-28T01:33:48.917Z,99.70
2018-11-28T01:36:17.165Z,99.90
2018-11-28T01:38:45.371Z,99.90
2018-11-28T01:41:13.642Z,99.90
2018-11-28T01:43:41.949Z,99.90
2018-11-28T01:46:10.427Z,99.90
2018-11-28T01:48:38.567Z,99.90
2018-11-28T01:51:07.163Z,99.90
2018-11-28T01:53:35.573Z,99.90
2018-11-28T01:56:04.253Z,99.90
2018-11-28T01:58:32.435Z,99.90
2018-11-28T02:01:00.814Z,99.90
2018-11-28T02:03:29.069Z,99.90
2018-11-28T02:05:57.303Z,99.90
2018-11-28T02:08:25.435Z,99.90
2018-11-28T02:10:54.270Z,99.90
2018-11-28T02:13:22.441Z,99.90
2018-11-28T02:15:50.677Z,99.90
2018-11-28T02:18:18.848Z,99.90
2018-11-28T02:20:47.127Z,99.90
2018-11-28T02:23:15.363Z,99.90
2018-11-28T02:25:44.293Z,99.90
2018-11-28T02:28:12.534Z,99.90
2018-11-28T02:30:40.718Z,99.90
2018-11-28T02:33:08.892Z,99.90
2018-11-28T02:35:38.289Z,99.90
2018-11-28T02:38:06.510Z,99.90
2018-11-28T02:40:35.250Z,99.90
2018-11-28T02:43:03.547Z,99.90
2018-11-28T02:45:31.812Z,99.90
2018-11-28T02:47:59.929Z,99.90
2018-11-28T02:50:28.298Z,99.90
2018-11-28T02:52:56.428Z,99.90
2018-11-28T02:55:24.587Z,99.90
2018-11-28T02:57:52.820Z,99.90
2018-11-28T03:00:24.028Z,99.90
2018-11-28T03:02:52.284Z,99.90
2018-11-28T03:05:20.689Z,99.90
2018-11-28T03:07:48.895Z,99.90
2018-11-28T03:10:18.211Z,99.90
2018-11-28T03:12:46.553Z,99.90
2018-11-28T03:15:25.124Z,99.90
2018-11-28T03:17:53.247Z,99.90
2018-11-28T03:20:21.437Z,99.90
2018-11-28T03:22:49.701Z,99.90
2018-11-28T03:25:17.854Z,99.90
2018-11-28T03:27:46.038Z,99.90
2018-11-28T03:30:15.286Z,99.90
2018-11-28T03:32:43.514Z,99.90
2018-11-28T03:35:12.896Z,99.90
2018-11-28T03:37:41.077Z,99.90
2018-11-28T03:40:10.453Z,99.90
2018-11-28T03:42:38.830Z,99.90
2018-11-28T03:45:11.917Z,99.90
2018-11-28T03:47:40.339Z,99.90
2018-11-28T03:50:10.866Z,99.90
2018-11-28T03:52:39.524Z,99.90
2018-11-28T03:55:18.277Z,99.90
2018-11-28T03:57:47.499Z,99.90
2018-11-28T04:00:18.671Z,99.90
2018-11-28T04:02:47.172Z,99.90
2018-11-28T04:05:15.309Z,99.90
2018-11-28T04:07:43.577Z,99.90
2018-11-28T04:10:20.834Z,99.90
2018-11-28T04:12:49.236Z,99.90
2018-11-28T04:15:19.718Z,99.90
2018-11-28T04:17:47.988Z,99.90
2018-11-28T04:20:18.116Z,99.90
2018-11-28T04:22:46.427Z,99.90
2018-11-28T04:25:16.391Z,99.90
2018-11-28T04:27:44.529Z,99.90
2018-11-28T04:30:14.889Z,99.90
2018-11-28T04:32:43.135Z,99.90
2018-11-28T04:35:12.272Z,99.90
2018-11-28T04:37:40.618Z,99.90
2018-11-28T04:40:11.013Z,99.90
2018-11-28T04:42:39.355Z,99.90
2018-11-28T04:45:11.849Z,99.90
2018-11-28T04:47:40.193Z,99.90
2018-11-28T04:50:09.470Z,99.90
2018-11-28T04:52:37.770Z,99.90
2018-11-28T04:55:08.370Z,99.90
2018-11-28T04:57:36.791Z,99.90
2018-11-28T05:00:14.081Z,99.90
2018-11-28T05:02:42.443Z,99.90
2018-11-28T05:05:11.148Z,99.90
2018-11-28T05:07:40.204Z,99.90
2018-11-28T05:10:09.743Z,99.90
2018-11-28T05:12:37.869Z,99.90
2018-11-28T05:15:08.017Z,99.90
2018-11-28T05:17:36.185Z,99.90
2018-11-28T05:20:06.333Z,99.90
2018-11-28T05:22:35.329Z,99.90
2018-11-28T05:25:03.844Z,99.90
2018-11-28T05:27:32.105Z,99.90
2018-11-28T05:30:00.253Z,99.90
2018-11-28T05:32:28.469Z,99.90
2018-11-28T05:34:56.591Z,99.90
2018-11-28T05:37:25.431Z,99.90
2018-11-28T05:39:57.169Z,99.90
2018-11-28T05:42:26.977Z,99.90
2018-11-28T05:44:55.181Z,99.90
2018-11-28T05:47:23.351Z,99.90
2018-11-28T05:49:51.665Z,99.90
2018-11-28T05:52:19.885Z,99.90
2018-11-28T05:54:48.022Z,99.90
2018-11-28T05:57:16.222Z,99.90
2018-11-28T05:59:44.409Z,99.90
2018-11-28T06:02:12.534Z,99.90
2018-11-28T06:04:41.959Z,99.90
2018-11-28T06:07:13.207Z,99.90
2018-11-28T06:09:41.905Z,99.90
2018-11-28T06:12:10.095Z,99.90
2018-11-28T06:14:38.213Z,99.90
2018-11-28T06:17:06.411Z,99.90
2018-11-28T06:19:34.630Z,99.90
2018-11-28T06:22:03.855Z,99.90
2018-11-28T06:24:31.999Z,99.90
2018-11-28T06:27:00.216Z,99.90
2018-11-28T06:29:28.489Z,99.90
2018-11-28T06:31:56.938Z,99.90
2018-11-28T06:34:25.166Z,99.90
2018-11-28T06:36:53.323Z,99.90
2018-11-28T06:39:21.585Z,99.90
2018-11-28T06:41:49.758Z,99.90
2018-11-28T06:44:18.175Z,99.90
2018-11-28T06:46:46.427Z,99.90
2018-11-28T06:49:14.583Z,99.90
2018-11-28T06:51:42.859Z,99.90
2018-11-28T06:54:11.083Z,99.90
2018-11-28T06:56:39.281Z,99.90
2018-11-28T06:59:07.531Z,99.90
2018-11-28T07:01:35.905Z,99.90
2018-11-28T07:04:04.076Z,99.90
2018-11-28T07:06:32.355Z,99.90
2018-11-28T07:09:00.567Z,99.90
2018-11-28T07:11:28.978Z,99.90
2018-11-28T07:13:57.087Z,99.90
2018-11-28T07:16:25.360Z,99.90
2018-11-28T07:19:05.853Z,99.90
2018-11-28T07:21:34.022Z,99.90
2018-11-28T07:24:02.323Z,99.90
2018-11-28T07:26:30.594Z,99.90
2018-11-28T07:28:58.982Z,99.90
2018-11-28T07:31:27.166Z,99.90
2018-11-28T07:33:55.407Z,99.90
2018-11-28T07:36:23.791Z,99.90
2018-11-28T07:38:51.960Z,99.90
2018-11-28T07:41:20.449Z,99.90
2018-11-28T07:43:48.670Z,99.90
2018-11-28T07:46:16.948Z,99.90
2018-11-28T07:48:45.120Z,99.90
2018-11-28T07:51:13.470Z,99.90
2018-11-28T07:53:41.999Z,99.90
2018-11-28T07:56:10.236Z,99.90
2018-11-28T07:58:38.532Z,99.90
2018-11-28T08:01:06.972Z,99.90
2018-11-28T08:03:35.267Z,99.90
2018-11-28T08:06:03.390Z,99.90
2018-11-28T08:08:36.732Z,99.90
2018-11-28T08:11:05.638Z,99.90
2018-11-28T08:13:33.761Z,99.90
2018-11-28T08:16:01.935Z,99.90
2018-11-28T08:18:33.589Z,99.90
2018-11-28T08:21:01.833Z,99.90
2018-11-28T08:23:30.047Z,99.90
2018-11-28T08:25:59.093Z,99.90
2018-11-28T08:28:30.323Z,99.90
2018-11-28T08:30:59.002Z,99.90
2018-11-28T08:33:30.236Z,99.90
2018-11-28T08:35:58.523Z,99.90
2018-11-28T08:38:27.699Z,99.90
2018-11-28T08:40:55.890Z,99.90
2018-11-28T08:43:24.041Z,99.90
2018-11-28T08:45:52.169Z,99.90
2018-11-28T08:48:20.856Z,99.90
2018-11-28T08:50:53.407Z,99.90
2018-11-28T08:53:21.616Z,99.90
2018-11-28T08:55:50.074Z,99.90
2018-11-28T08:58:18.499Z,99.90
2018-11-28T09:00:46.870Z,99.90
2018-11-28T09:03:14.970Z,99.90
2018-11-28T09:05:43.251Z,99.90
2018-11-28T09:08:11.394Z,99.90
2018-11-28T09:10:39.712Z,99.90
2018-11-28T09:13:07.860Z,99.90
2018-11-28T09:15:36.039Z,99.90
2018-11-28T09:18:04.437Z,99.90
2018-11-28T09:20:33.904Z,99.90
2018-11-28T09:23:09.135Z,99.90
2018-11-28T09:25:37.890Z,99.90
2018-11-28T09:28:06.784Z,99.90
2018-11-28T09:30:35.229Z,99.90
2018-11-28T09:33:03.451Z,99.90
2018-11-28T09:35:31.887Z,99.90
2018-11-28T09:38:00.556Z,99.90
2018-11-28T09:40:28.801Z,99.90
2018-11-28T09:42:58.234Z,99.90
2018-11-28T09:45:26.756Z,99.90
2018-11-28T09:47:54.945Z,99.90
2018-11-28T09:50:26.708Z,99.90
2018-11-28T09:52:54.881Z,99.60
2018-11-28T09:55:26.935Z,99.40
2018-11-28T09:57:55.463Z,99.00
2018-11-28T10:00:25.121Z,98.40
2018-11-28T10:03:01.949Z,97.80
2018-11-28T10:05:31.456Z,97.00
2018-11-28T10:07:59.851Z,96.80
2018-11-28T10:10:28.174Z,96.60
2018-11-28T10:12:58.569Z,96.70
2018-11-28T10:15:27.853Z,96.00
2018-11-28T10:17:56.139Z,95.40
2018-11-28T10:20:24.517Z,95.30
2018-11-28T10:22:53.491Z,95.30
2018-11-28T10:25:23.552Z,94.80
2018-11-28T10:28:00.422Z,94.60
2018-11-28T10:30:30.688Z,94.50
2018-11-28T10:32:59.150Z,94.20
2018-11-28T10:35:27.738Z,94.20
2018-11-28T10:37:56.201Z,94.50
2018-11-28T10:40:25.116Z,94.50
2018-11-28T10:42:56.542Z,94.20
2018-11-28T10:45:25.679Z,93.40
2018-11-28T10:47:53.897Z,93.10
2018-11-28T10:50:22.164Z,92.80
2018-11-28T10:52:50.458Z,91.80
2018-11-28T10:55:21.814Z,91.40
2018-11-28T10:57:50.758Z,91.50
2018-11-28T11:00:31.342Z,91.60
2018-11-28T11:03:05.116Z,91.70
2018-11-28T11:06:00.921Z,91.30
2018-11-28T11:08:35.087Z,91.20
2018-11-28T11:11:09.830Z,91.10
2018-11-28T11:14:43.894Z,91.10
2018-11-28T11:17:17.008Z,91.10
2018-11-28T11:19:45.423Z,91.00
2018-11-28T11:22:14.900Z,91.10
2018-11-28T11:24:43.952Z,91.50
2018-11-28T11:27:12.175Z,91.40
2018-11-28T11:29:40.423Z,91.20
2018-11-28T11:32:08.609Z,91.10
2018-11-28T11:34:37.134Z,90.80
2018-11-28T11:37:05.558Z,90.70
2018-11-28T11:39:35.264Z,90.60
2018-11-28T11:42:03.526Z,90.50
2018-11-28T11:44:32.260Z,90.40
2018-11-28T11:47:01.796Z,90.40
2018-11-28T11:49:29.926Z,90.40
2018-11-28T11:51:58.039Z,90.60
2018-11-28T11:54:27.571Z,90.40
2018-11-28T11:56:55.709Z,90.10
2018-11-28T11:59:24.060Z,90.10
2018-11-28T12:01:54.818Z,90.10
2018-11-28T12:04:20.520Z,90.10
2018-11-28T12:06:48.784Z,90.00
2018-11-28T12:09:17.177Z,90.10
2018-11-28T12:11:45.333Z,90.00
2018-11-28T12:14:13.526Z,89.70
2018-11-28T12:16:43.780Z,89.40
2018-11-28T12:19:12.425Z,89.30
2018-11-28T12:21:40.585Z,89.70
2018-11-28T12:24:08.867Z,89.70
2018-11-28T12:26:39.065Z,89.20
2018-11-28T12:29:07.254Z,89.60
2018-11-28T12:31:35.444Z,88.60
2018-11-28T12:34:04.210Z,88.50
2018-11-28T12:36:32.332Z,88.40
2018-11-28T12:39:01.322Z,88.80
2018-11-28T12:41:29.522Z,88.50
2018-11-28T12:43:57.817Z,88.70
2018-11-28T12:46:25.997Z,88.70
2018-11-28T12:48:54.148Z,88.50
2018-11-28T12:51:22.293Z,89.00
2018-11-28T12:53:50.453Z,89.20
2018-11-28T12:56:18.728Z,89.10
2018-11-28T12:58:46.920Z,88.80
2018-11-28T13:01:15.314Z,88.80
2018-11-28T13:03:44.044Z,88.80
2018-11-28T13:06:12.425Z,88.10
2018-11-28T13:08:40.762Z,88.40
2018-11-28T13:11:10.183Z,88.10
2018-11-28T13:13:38.722Z,87.70
2018-11-28T13:16:07.850Z,87.70
2018-11-28T13:18:36.273Z,87.70
2018-11-28T13:21:04.736Z,87.70
2018-11-28T13:23:33.607Z,87.90
2018-11-28T13:26:03.041Z,88.20
2018-11-28T13:28:31.265Z,88.50
2018-11-28T13:30:59.611Z,88.70
2018-11-28T13:33:28.003Z,88.30
2018-11-28T13:35:56.306Z,88.40
2018-11-28T13:38:25.267Z,88.00
2018-11-28T13:40:53.571Z,87.90
2018-11-28T13:43:24.751Z,87.90
2018-11-28T13:45:52.929Z,87.90
2018-11-28T13:48:21.623Z,88.10
2018-11-28T13:50:49.819Z,88.40
2018-11-28T13:53:18.378Z,89.00
2018-11-28T13:56:57.414Z,89.60
2018-11-28T13:58:24.609Z,90.10
2018-11-28T14:00:58.259Z,90.40
2018-11-28T14:03:26.454Z,90.50
2018-11-28T14:05:55.176Z,90.70
2018-11-28T14:08:23.458Z,91.00
2018-11-28T14:10:55.755Z,91.00
2018-11-28T14:13:24.053Z,91.30
2018-11-28T14:15:53.221Z,91.40
2018-11-28T14:18:21.531Z,91.50
2018-11-28T14:20:49.740Z,91.60
2018-11-28T14:23:17.917Z,91.60
2018-11-28T14:25:46.129Z,91.60
2018-11-28T14:28:14.316Z,91.60
2018-11-28T14:30:49.404Z,91.80
2018-11-28T14:33:22.253Z,92.00
2018-11-28T14:35:53.736Z,92.10
2018-11-28T14:38:21.847Z,92.40
2018-11-28T14:40:52.311Z,92.30
2018-11-28T14:43:20.597Z,92.40
2018-11-28T14:45:48.769Z,92.60
2018-11-28T14:48:17.351Z,92.70
2018-11-28T14:50:57.407Z,92.90
2018-11-28T14:53:26.565Z,93.00
2018-11-28T14:56:00.739Z,93.10
2018-11-28T14:58:29.125Z,93.20
2018-11-28T15:01:01.395Z,93.30
2018-11-28T15:03:34.939Z,93.60
2018-11-28T15:06:37.161Z,93.70
2018-11-28T15:09:15.166Z,93.80
2018-11-28T15:11:44.285Z,93.90
2018-11-28T15:14:12.407Z,94.10
2018-11-28T15:16:40.590Z,94.20
2018-11-28T15:19:08.758Z,94.20
2018-11-28T15:21:36.906Z,94.20
2018-11-28T15:24:05.681Z,94.40
2018-11-28T15:26:33.877Z,94.50
2018-11-28T15:29:02.373Z,94.40
2018-11-28T15:31:30.771Z,94.50
2018-11-28T15:34:01.701Z,94.70
2018-11-28T15:36:29.823Z,94.50
2018-11-28T15:38:57.965Z,94.30
2018-11-28T15:41:26.601Z,94.50
2018-11-28T15:43:54.761Z,94.50
2018-11-28T15:46:23.052Z,94.60
2018-11-28T15:48:51.183Z,95.00
2018-11-28T15:51:19.587Z,94.80
2018-11-28T15:53:47.863Z,94.80
2018-11-28T15:56:15.974Z,94.90
2018-11-28T15:58:44.157Z,94.80
2018-11-28T16:01:12.290Z,94.80
2018-11-28T16:03:40.447Z,94.90
2018-11-28T16:06:08.785Z,95.00
2018-11-28T16:08:36.960Z,94.80
2018-11-28T16:11:12.102Z,94.70
2018-11-28T16:13:41.337Z,94.80
2018-11-28T16:16:09.444Z,94.80
2018-11-28T16:18:37.683Z,94.90
2018-11-28T16:21:06.010Z,94.90
2018-11-28T16:23:34.150Z,94.80
2018-11-28T16:26:02.315Z,94.90
2018-11-28T16:28:30.463Z,95.00
2018-11-28T16:30:58.553Z,95.10
2018-11-28T16:33:28.189Z,95.00
2018-11-28T16:35:56.331Z,95.20
2018-11-28T16:38:24.471Z,95.30
2018-11-28T16:40:53.296Z,95.50
2018-11-28T16:43:21.419Z,95.50
2018-11-28T16:45:49.541Z,95.60
2018-11-28T16:48:17.673Z,95.90
2018-11-28T16:50:46.783Z,96.00
2018-11-28T16:53:14.920Z,96.10
2018-11-28T16:55:43.117Z,96.40
2018-11-28T16:58:11.272Z,96.60
2018-11-28T17:00:40.944Z,96.90
2018-11-28T17:03:09.117Z,97.00
2018-11-28T17:05:37.749Z,97.30
2018-11-28T17:08:09.094Z,97.40
2018-11-28T17:10:38.692Z,97.60
2018-11-28T17:13:07.112Z,97.80
2018-11-28T17:15:35.263Z,97.70
2018-11-28T17:18:03.524Z,97.60
2018-11-28T17:20:31.705Z,97.70
2018-11-28T17:23:00.768Z,97.60
2018-11-28T17:25:31.160Z,97.60
2018-11-28T17:27:59.288Z,97.70
2018-11-28T17:30:33.788Z,97.80
2018-11-28T17:33:01.961Z,97.80
2018-11-28T17:35:30.308Z,97.80
2018-11-28T17:37:58.454Z,97.90
2018-11-28T17:40:28.618Z,98.00
2018-11-28T17:42:57.862Z,98.10
2018-11-28T17:45:26.672Z,98.10
2018-11-28T17:47:54.970Z,98.20
2018-11-28T17:50:24.140Z,98.30
2018-11-28T17:53:03.045Z,98.30
2018-11-28T17:55:44.171Z,98.40
2018-11-28T17:58:12.433Z,98.50
2018-11-28T18:00:40.784Z,98.50
2018-11-28T18:03:08.917Z,98.70
2018-11-28T18:05:37.128Z,98.80
2018-11-28T18:08:17.997Z,98.90
2018-11-28T18:10:46.302Z,99.00
2018-11-28T18:13:15.601Z,99.20
2018-11-28T18:15:45.956Z,99.40
2018-11-28T18:18:15.708Z,99.70
2018-11-28T18:20:50.143Z,99.80
2018-11-28T18:23:14.238Z,99.90
2018-11-28T18:25:45.635Z,99.90
2018-11-28T18:28:14.397Z,99.90
2018-11-28T18:30:42.988Z,99.90
2018-11-28T18:33:12.458Z,99.90
2018-11-28T18:35:40.718Z,99.90
2018-11-28T18:38:09.371Z,99.90
2018-11-28T18:40:38.917Z,99.90
2018-11-28T18:43:08.046Z,99.90
2018-11-28T18:45:39.043Z,99.90
2018-11-28T18:48:07.741Z,99.90
2018-11-28T18:50:35.925Z,99.90
2018-11-28T18:53:04.065Z,99.90
2018-11-28T18:55:32.332Z,99.90
2018-11-28T18:58:00.623Z,99.90
2018-11-28T19:00:28.813Z,99.90
2018-11-28T19:02:57.938Z,99.90
2018-11-28T19:05:26.149Z,99.90
2018-11-28T19:07:54.463Z,99.90
2018-11-28T19:10:26.690Z,99.90
2018-11-28T19:12:53.223Z,99.90
2018-11-28T19:15:23.477Z,99.90
2018-11-28T19:17:51.977Z,99.90
2018-11-28T19:20:21.978Z,99.90
2018-11-28T19:22:50.937Z,99.90
2018-11-28T19:25:22.137Z,99.90
2018-11-28T19:27:50.465Z,99.90
2018-11-28T19:30:21.058Z,99.90
2018-11-28T19:32:49.313Z,99.90
2018-11-28T19:35:17.583Z,99.90
2018-11-28T19:37:45.883Z,99.90
2018-11-28T19:40:18.863Z,99.90
2018-11-28T19:42:47.085Z,99.90
2018-11-28T19:45:15.638Z,99.90
2018-11-28T19:47:44.361Z,99.90
2018-11-28T19:50:14.871Z,99.90
2018-11-28T19:52:43.168Z,99.90
2018-11-28T19:55:11.375Z,99.90
2018-11-28T19:57:39.597Z,99.90
2018-11-28T20:00:11.814Z,99.90
2018-11-28T20:02:40.342Z,99.90
2018-11-28T20:05:08.603Z,99.90
2018-11-28T20:07:37.509Z,99.90
2018-11-28T20:10:09.965Z,99.90
2018-11-28T20:12:39.599Z,99.90
2018-11-28T20:15:11.845Z,99.90
2018-11-28T20:17:42.696Z,99.90
2018-11-28T20:20:12.051Z,99.90
2018-11-28T20:22:40.409Z,99.90
2018-11-28T20:25:11.055Z,99.90
2018-11-28T20:27:39.757Z,99.90
2018-11-28T20:30:13.694Z,99.90
2018-11-28T20:32:42.946Z,99.90
2018-11-28T20:35:11.365Z,99.90
2018-11-28T20:37:41.003Z,99.90
2018-11-28T20:40:13.485Z,99.90
2018-11-28T20:42:43.167Z,99.90
2018-11-28T20:45:14.551Z,99.90
2018-11-28T20:47:44.511Z,99.90
2018-11-28T20:50:18.298Z,99.90
2018-11-28T20:52:54.610Z,99.90
2018-11-28T20:55:17.721Z,99.90
2018-11-28T20:57:45.999Z,99.90
2018-11-28T21:00:16.596Z,99.90
2018-11-28T21:02:47.029Z,99.90
2018-11-28T21:05:16.924Z,99.90
2018-11-28T21:07:56.042Z,99.90
2018-11-28T21:10:46.298Z,99.90
2018-11-28T21:13:16.099Z,99.90
2018-11-28T21:15:45.430Z,99.90
2018-11-28T21:18:48.846Z,99.90
2018-11-28T21:21:17.494Z,99.90
2018-11-28T21:24:07.624Z,99.90
2018-11-28T21:26:35.890Z,99.90
2018-11-28T21:29:08.019Z,99.90
2018-11-28T21:31:36.249Z,99.90
2018-11-28T21:34:05.345Z,99.90
2018-11-28T21:36:32.848Z,99.90
2018-11-28T21:39:01.516Z,99.90
2018-11-28T21:41:30.700Z,99.90
2018-11-28T21:43:59.152Z,99.90
2018-11-28T21:46:27.603Z,99.90
2018-11-28T21:49:05.719Z,99.90
2018-11-28T21:51:41.873Z,99.90
2018-11-28T21:54:10.178Z,99.90
2018-11-28T21:56:38.494Z,99.90
2018-11-28T21:59:07.103Z,99.90
2018-11-28T22:01:35.572Z,99.90
2018-11-28T22:04:03.861Z,99.90
2018-11-28T22:06:32.097Z,99.90
2018-11-28T22:09:00.382Z,99.90
2018-11-28T22:11:28.658Z,99.90
2018-11-28T22:13:56.878Z,99.90
2018-11-28T22:16:25.679Z,99.90
2018-11-28T22:18:53.888Z,99.90
2018-11-28T22:21:22.176Z,99.90
2018-11-28T22:23:51.215Z,99.90
2018-11-28T22:26:19.350Z,99.90
2018-11-28T22:28:49.291Z,99.90
2018-11-28T22:31:17.460Z,99.90
2018-11-28T22:33:45.781Z,99.90
2018-11-28T22:36:13.966Z,99.90
2018-11-28T22:38:42.317Z,99.90
2018-11-28T22:41:11.105Z,99.90
2018-11-28T22:43:39.326Z,99.90
2018-11-28T22:46:07.577Z,99.90
2018-11-28T22:48:35.891Z,99.90
2018-11-28T22:51:04.581Z,99.90
2018-11-28T22:53:32.937Z,99.90
2018-11-28T22:56:01.140Z,99.90
2018-11-28T22:58:29.619Z,99.90
2018-11-28T23:01:03.465Z,99.90
2018-11-28T23:03:32.074Z,99.90
2018-11-28T23:06:00.478Z,99.90
2018-11-28T23:08:28.691Z,99.90
2018-11-28T23:10:57.043Z,99.90
2018-11-28T23:13:25.687Z,99.90
2018-11-28T23:15:54.071Z,99.90
2018-11-28T23:18:22.478Z,99.90
2018-11-28T23:20:50.723Z,99.90
2018-11-28T23:23:19.942Z,99.90
2018-11-28T23:25:48.461Z,99.90
2018-11-28T23:28:17.292Z,99.90
2018-11-28T23:30:45.606Z,99.90
2018-11-28T23:33:16.255Z,99.90
2018-11-28T23:35:42.645Z,99.90
2018-11-28T23:38:11.451Z,99.90
2018-11-28T23:40:39.954Z,99.90
2018-11-28T23:43:08.588Z,99.90
2018-11-28T23:45:36.882Z,99.90
2018-11-28T23:48:05.384Z,99.90
2018-11-28T23:50:34.648Z,99.90
2018-11-28T23:53:03.256Z,99.90
2018-11-28T23:55:31.826Z,99.90
2018-11-28T23:57:59.966Z,99.90
